Time;durP1;ratioP1;P1;durP2;ratioP2;P2;SDS_P1;SDS_P2;PMS_P1;PMS_P2;Temp;Humidity;BMP_temperature;BMP_pressure;BME280_temperature;BME280_humidity;BME280_pressure;Samples;Min_cycle;Max_cycle;Signal;HPM_P1;HPM_P2
2022/10/28 00:02:12;;;;;;;5.90;2.45;;;14.20;99.90;;;;;;5035932;28;20395;-83
2022/10/28 00:04:38;;;;;;;4.57;2.80;;;14.30;99.90;;;;;;5019585;28;20044;-82
2022/10/28 00:07:04;;;;;;;6.03;2.55;;;14.20;99.90;;;;;;5036287;28;20124;-82
2022/10/28 00:09:30;;;;;;;5.90;2.72;;;14.30;99.90;;;;;;5036540;28;20486;-81
2022/10/28 00:11:55;;;;;;;4.07;2.15;;;14.30;99.90;;;;;;5019834;28;20045;-82
2022/10/28 00:14:21;;;;;;;9.38;2.95;;;14.40;99.90;;;;;;5035565;28;20056;-82
2022/10/28 00:16:47;;;;;;;6.38;3.25;;;14.50;99.90;;;;;;5035960;28;20068;-82
2022/10/28 00:19:13;;;;;;;10.98;3.15;;;14.60;99.90;;;;;;5035881;28;20033;-82
2022/10/28 00:21:41;;;;;;;4.90;2.88;;;14.60;99.90;;;;;;5052588;28;20052;-83
2022/10/28 00:24:08;;;;;;;9.65;3.53;;;14.70;99.90;;;;;;5053188;28;20044;-83
2022/10/28 00:26:36;;;;;;;6.80;3.47;;;14.70;99.90;;;;;;5052491;28;20052;-83
2022/10/28 00:29:05;;;;;;;7.43;2.92;;;14.80;99.90;;;;;;5052486;28;20408;-83
2022/10/28 00:31:32;;;;;;;4.95;2.55;;;14.90;99.90;;;;;;5052416;28;20134;-83
2022/10/28 00:33:59;;;;;;;8.68;3.97;;;14.90;99.90;;;;;;5052716;28;20037;-83
2022/10/28 00:36:30;;;;;;;6.88;3.63;;;14.90;99.90;;;;;;5035924;28;20056;-83
2022/10/28 00:38:57;;;;;;;6.35;3.10;;;14.90;99.90;;;;;;5051138;28;20049;-82
2022/10/28 00:41:35;;;;;;;8.23;3.92;;;14.90;99.90;;;;;;5035247;28;20045;-82
2022/10/28 00:44:36;;;;;;;9.63;3.70;;;14.90;99.90;;;;;;5035330;28;20044;-81
2022/10/28 00:47:04;;;;;;;8.43;3.25;;;14.90;99.90;;;;;;5035440;28;20048;-81
2022/10/28 00:49:33;;;;;;;6.20;3.20;;;14.90;99.90;;;;;;5052042;28;20052;-82
2022/10/28 00:52:04;;;;;;;5.10;2.70;;;14.90;99.90;;;;;;5035702;28;20045;-82
2022/10/28 00:54:31;;;;;;;7.97;3.05;;;14.80;99.90;;;;;;5052639;28;20040;-84
2022/10/28 00:57:02;;;;;;;4.43;2.65;;;14.80;99.90;;;;;;5052327;28;20047;-84
2022/10/28 00:59:35;;;;;;;5.88;2.85;;;14.80;99.90;;;;;;5035450;28;20565;-84
2022/10/28 01:02:01;;;;;;;6.43;3.78;;;12.80;99.90;;;;;;5051764;28;20045;-84
2022/10/28 01:04:27;;;;;;;6.03;2.90;;;14.60;99.90;;;;;;5035287;28;20068;-83
2022/10/28 01:06:54;;;;;;;6.07;2.50;;;14.60;99.90;;;;;;5019086;28;20131;-83
2022/10/28 01:09:20;;;;;;;6.55;3.05;;;14.50;99.90;;;;;;5051893;28;20039;-84
2022/10/28 01:12:04;;;;;;;6.07;2.88;;;14.40;99.90;;;;;;5051937;28;20476;-84
2022/10/28 01:14:59;;;;;;;5.30;3.20;;;14.40;99.90;;;;;;5046235;28;20037;-83
2022/10/28 01:17:47;;;;;;;7.20;3.78;;;14.30;99.90;;;;;;5051670;28;20504;-83
2022/10/28 01:20:24;;;;;;;5.45;2.50;;;14.20;99.90;;;;;;5051699;28;20442;-83
2022/10/28 01:22:58;;;;;;;5.55;2.97;;;14.20;99.90;;;;;;5052180;28;20037;-83
2022/10/28 01:25:48;;;;;;;7.18;2.67;;;14.10;99.90;;;;;;5037201;28;20047;-83
2022/10/28 01:28:23;;;;;;;8.40;4.65;;;14.10;99.90;;;;;;5055380;28;20037;-82
2022/10/28 01:31:07;;;;;;;8.52;3.28;;;14.10;99.90;;;;;;5038356;28;20041;-82
2022/10/28 01:33:58;;;;;;;6.55;2.95;;;14.10;99.90;;;;;;5055869;28;20629;-82
2022/10/28 01:36:41;;;;;;;7.13;3.35;;;14.10;99.90;;;;;;5054654;28;20084;-82
2022/10/28 01:39:22;;;;;;;5.93;3.00;;;14.10;99.90;;;;;;5018683;28;20037;-82
2022/10/28 01:42:17;;;;;;;5.10;2.80;;;14.10;99.90;;;;;;5047130;28;20037;-82
2022/10/28 01:45:05;;;;;;;7.25;3.42;;;14.10;99.90;;;;;;5040858;28;20045;-82
2022/10/28 01:47:36;;;;;;;6.43;2.80;;;14.10;99.90;;;;;;5072827;28;20036;-82
2022/10/28 01:50:04;;;;;;;9.05;3.35;;;14.10;99.90;;;;;;5055057;28;20048;-82
2022/10/28 01:52:31;;;;;;;6.55;3.15;;;14.10;99.90;;;;;;5054866;28;20098;-82
2022/10/28 01:55:05;;;;;;;9.02;3.08;;;14.10;99.90;;;;;;5038364;28;20045;-82
2022/10/28 01:57:34;;;;;;;5.47;3.00;;;14.00;99.90;;;;;;5037524;28;20041;-82
2022/10/28 02:00:01;;;;;;;4.97;2.65;;;13.90;99.90;;;;;;5054814;28;20492;-84
2022/10/28 02:02:33;;;;;;;8.63;3.33;;;13.90;99.90;;;;;;5056594;28;20037;-84
2022/10/28 02:05:37;;;;;;;7.50;3.75;;;13.90;99.90;;;;;;5038861;28;20037;-84
2022/10/28 02:08:28;;;;;;;7.53;3.92;;;13.80;99.90;;;;;;5054654;28;20107;-84
2022/10/28 02:11:01;;;;;;;8.75;3.30;;;13.80;99.90;;;;;;5054422;28;20049;-84
2022/10/28 02:13:40;;;;;;;7.03;4.10;;;13.60;99.90;;;;;;5051065;23;20076;-82
2022/10/28 02:16:34;;;;;;;9.63;3.75;;;13.70;99.90;;;;;;5034390;28;20048;-82
2022/10/28 02:19:28;;;;;;;3.95;2.63;;;13.70;99.90;;;;;;5033066;28;20491;-82
2022/10/28 02:22:00;;;;;;;5.50;2.88;;;13.70;99.90;;;;;;5032954;28;20077;-82
2022/10/28 02:24:31;;;;;;;6.00;2.78;;;13.60;99.90;;;;;;5015143;28;20041;-82
2022/10/28 02:27:28;;;;;;;5.03;2.65;;;13.60;99.90;;;;;;5015334;28;20041;-82
2022/10/28 02:29:59;;;;;;;5.45;3.03;;;13.50;99.90;;;;;;5016056;28;20103;-81
2022/10/28 02:32:29;;;;;;;5.63;3.05;;;13.50;99.90;;;;;;5034440;28;20056;-81
2022/10/28 02:34:59;;;;;;;7.47;3.72;;;13.50;99.90;;;;;;5034443;28;20072;-81
2022/10/28 02:37:31;;;;;;;7.85;3.30;;;13.50;99.90;;;;;;5033602;28;20045;-81
2022/10/28 02:40:02;;;;;;;7.60;4.07;;;13.50;99.90;;;;;;5033386;28;20495;-82
2022/10/28 02:42:36;;;;;;;7.60;3.97;;;13.50;99.90;;;;;;5017592;28;20038;-81
2022/10/28 02:45:12;;;;;;;9.35;3.45;;;13.50;99.90;;;;;;5033426;28;20120;-82
2022/10/28 02:47:45;;;;;;;10.00;4.30;;;13.50;99.90;;;;;;5034451;28;20080;-81
2022/10/28 02:50:16;;;;;;;7.78;4.05;;;13.50;99.90;;;;;;5033901;28;20061;-82
2022/10/28 02:52:45;;;;;;;7.55;4.35;;;13.50;99.90;;;;;;5034053;28;20069;-81
2022/10/28 02:55:11;;;;;;;11.35;4.65;;;13.50;99.90;;;;;;5033931;28;20045;-81
2022/10/28 02:57:41;;;;;;;10.85;4.65;;;13.60;99.90;;;;;;5041085;28;20041;-82
2022/10/28 03:00:19;;;;;;;10.90;4.57;;;13.50;99.90;;;;;;5027788;28;20557;-82
2022/10/28 03:02:45;;;;;;;8.20;4.05;;;13.60;99.90;;;;;;5023467;28;20037;-81
2022/10/28 03:05:12;;;;;;;9.88;4.28;;;13.50;99.90;;;;;;5017010;28;20129;-81
2022/10/28 03:07:38;;;;;;;8.35;3.83;;;13.50;99.90;;;;;;5033842;28;20041;-82
2022/10/28 03:10:04;;;;;;;7.30;3.85;;;13.50;99.90;;;;;;5033947;28;20045;-81
2022/10/28 03:12:30;;;;;;;7.65;4.05;;;13.50;99.90;;;;;;5017204;28;20069;-82
2022/10/28 03:14:56;;;;;;;7.18;4.13;;;13.50;99.90;;;;;;5033876;28;20045;-81
2022/10/28 03:17:21;;;;;;;8.13;3.55;;;13.40;99.90;;;;;;5033585;28;20484;-81
2022/10/28 03:19:47;;;;;;;12.95;4.63;;;13.40;99.90;;;;;;5032525;28;20041;-81
2022/10/28 03:22:13;;;;;;;9.80;4.75;;;13.50;99.90;;;;;;5053644;28;20478;-82
2022/10/28 03:24:39;;;;;;;10.35;4.40;;;13.50;99.90;;;;;;5035452;28;20045;-83
2022/10/28 03:27:04;;;;;;;6.95;4.13;;;13.50;99.90;;;;;;5033880;28;20033;-83
2022/10/28 03:29:30;;;;;;;5.72;3.75;;;13.50;99.90;;;;;;5033716;28;20131;-83
2022/10/28 03:31:56;;;;;;;8.45;3.80;;;13.50;99.90;;;;;;5000867;28;20048;-84
2022/10/28 03:34:21;;;;;;;6.00;3.22;;;13.50;99.90;;;;;;5000751;28;20045;-83
2022/10/28 03:36:47;;;;;;;8.38;3.85;;;13.40;99.90;;;;;;5018331;28;20049;-83
2022/10/28 03:39:13;;;;;;;8.40;4.50;;;13.40;99.90;;;;;;5016616;28;20046;-84
2022/10/28 03:41:38;;;;;;;12.82;4.28;;;13.40;99.90;;;;;;5017055;28;20041;-83
2022/10/28 03:44:05;;;;;;;9.75;4.97;;;13.40;99.90;;;;;;5033101;28;20403;-83
2022/10/28 03:46:30;;;;;;;7.85;4.22;;;13.40;99.90;;;;;;5016616;28;20045;-83
2022/10/28 03:48:56;;;;;;;6.28;3.58;;;13.30;99.90;;;;;;5016097;28;20034;-83
2022/10/28 03:51:22;;;;;;;5.78;3.28;;;13.30;99.90;;;;;;5048206;28;20079;-83
2022/10/28 03:53:47;;;;;;;6.93;3.38;;;13.30;99.90;;;;;;5017491;28;20037;-83
2022/10/28 03:56:13;;;;;;;7.60;2.85;;;13.20;99.90;;;;;;5045787;28;20036;-83
2022/10/28 03:58:39;;;;;;;4.18;2.60;;;13.20;99.90;;;;;;5023910;28;20110;-82
2022/10/28 04:01:05;;;;;;;4.88;2.88;;;13.20;99.90;;;;;;5016898;28;20045;-83
2022/10/28 04:03:30;;;;;;;10.30;4.40;;;13.10;99.90;;;;;;5000145;28;20049;-83
2022/10/28 04:05:56;;;;;;;9.38;4.10;;;13.10;99.90;;;;;;5033214;28;20044;-83
2022/10/28 04:08:22;;;;;;;7.13;3.75;;;13.10;99.90;;;;;;5032637;28;20126;-83
2022/10/28 04:10:48;;;;;;;8.15;3.85;;;13.20;99.90;;;;;;5000414;28;20042;-83
2022/10/28 04:13:15;;;;;;;8.25;3.72;;;13.20;99.90;;;;;;5032394;28;20053;-83
2022/10/28 04:15:40;;;;;;;5.85;3.20;;;13.20;99.90;;;;;;5032909;28;20103;-83
2022/10/28 04:18:06;;;;;;;7.75;4.10;;;13.10;99.90;;;;;;5032100;28;20046;-83
2022/10/28 04:20:32;;;;;;;9.57;4.30;;;13.10;99.90;;;;;;5032398;28;20095;-83
2022/10/28 04:22:58;;;;;;;7.63;3.70;;;13.10;99.90;;;;;;5016321;28;20044;-84
2022/10/28 04:25:25;;;;;;;8.43;4.72;;;13.00;99.90;;;;;;5016330;28;20045;-83
2022/10/28 04:27:50;;;;;;;13.10;4.75;;;13.10;99.90;;;;;;4999863;28;20065;-83
2022/10/28 04:30:16;;;;;;;11.32;4.85;;;13.00;99.90;;;;;;5032865;28;20076;-83
2022/10/28 04:32:43;;;;;;;6.72;4.22;;;13.00;99.90;;;;;;5032566;28;20045;-84
2022/10/28 04:35:10;;;;;;;10.55;4.88;;;13.00;99.90;;;;;;4999788;28;20444;-83
2022/10/28 04:37:36;;;;;;;9.98;4.68;;;13.00;99.90;;;;;;4999969;28;20041;-83
2022/10/28 04:40:03;;;;;;;10.95;4.88;;;13.00;99.90;;;;;;5032299;28;20399;-83
2022/10/28 04:42:29;;;;;;;12.98;5.15;;;13.00;99.90;;;;;;5016391;28;20084;-83
2022/10/28 04:44:55;;;;;;;14.02;4.95;;;13.00;99.90;;;;;;5016305;28;20068;-84
2022/10/28 04:47:20;;;;;;;7.70;4.40;;;13.00;99.90;;;;;;5016660;28;20034;-83
2022/10/28 04:49:46;;;;;;;7.65;4.20;;;13.00;99.90;;;;;;5015953;28;20049;-83
2022/10/28 04:52:12;;;;;;;9.70;5.45;;;12.90;99.90;;;;;;5032144;28;20045;-83
2022/10/28 04:54:37;;;;;;;10.38;5.63;;;13.00;99.90;;;;;;5012323;28;20108;-83
2022/10/28 04:57:03;;;;;;;10.07;4.75;;;13.00;99.90;;;;;;5012549;28;20038;-83
2022/10/28 04:59:29;;;;;;;10.32;4.30;;;12.90;99.90;;;;;;5012957;28;20050;-83
2022/10/28 05:01:55;;;;;;;8.10;4.30;;;12.90;99.90;;;;;;4999931;28;20045;-83
2022/10/28 05:04:20;;;;;;;10.48;5.80;;;12.80;99.90;;;;;;4999867;28;20037;-82
2022/10/28 05:06:46;;;;;;;9.25;4.95;;;12.90;99.90;;;;;;5005504;28;20502;-82
2022/10/28 05:09:12;;;;;;;11.68;5.43;;;12.90;99.90;;;;;;5019518;28;20095;-82
2022/10/28 05:11:38;;;;;;;10.52;5.20;;;13.00;99.90;;;;;;5000221;28;20125;-82
2022/10/28 05:14:04;;;;;;;13.20;5.25;;;13.00;99.90;;;;;;5015829;28;20064;-82
2022/10/28 05:16:29;;;;;;;14.13;5.53;;;12.90;99.90;;;;;;5030019;28;20049;-81
2022/10/28 05:18:56;;;;;;;10.15;4.35;;;12.90;99.90;;;;;;5035742;28;20045;-81
2022/10/28 05:21:22;;;;;;;10.75;4.72;;;12.90;99.90;;;;;;5035077;28;20103;-83
2022/10/28 05:23:48;;;;;;;11.05;4.97;;;12.90;99.90;;;;;;5034891;28;20460;-83
2022/10/28 05:26:14;;;;;;;9.88;5.45;;;12.90;99.90;;;;;;5034222;28;20059;-83
2022/10/28 05:28:40;;;;;;;8.95;4.80;;;12.90;99.90;;;;;;5035382;28;20464;-83
2022/10/28 05:31:05;;;;;;;10.77;5.25;;;13.00;99.90;;;;;;5035020;28;20041;-83
2022/10/28 05:33:32;;;;;;;10.45;5.30;;;12.90;99.90;;;;;;5035414;28;20041;-83
2022/10/28 05:35:59;;;;;;;13.00;4.93;;;12.80;99.90;;;;;;5018895;28;20438;-83
2022/10/28 05:38:25;;;;;;;13.68;5.72;;;12.80;99.90;;;;;;5026890;28;20557;-83
2022/10/28 05:40:50;;;;;;;8.07;4.55;;;12.80;99.90;;;;;;5014100;28;20048;-83
2022/10/28 05:43:16;;;;;;;7.60;4.60;;;12.70;99.90;;;;;;5034187;28;20391;-83
2022/10/28 05:45:42;;;;;;;11.30;5.90;;;12.70;99.90;;;;;;5019001;28;20179;-83
2022/10/28 05:48:08;;;;;;;9.10;4.78;;;12.70;99.90;;;;;;5018648;28;20069;-83
2022/10/28 05:50:34;;;;;;;9.43;5.03;;;12.60;99.90;;;;;;5015246;28;20046;-83
2022/10/28 05:52:59;;;;;;;12.32;5.30;;;12.70;99.90;;;;;;5018359;28;20041;-83
2022/10/28 05:55:28;;;;;;;11.50;5.18;;;12.70;99.90;;;;;;5034797;28;20442;-81
2022/10/28 05:57:54;;;;;;;10.85;5.20;;;12.70;99.90;;;;;;5034263;28;20037;-81
2022/10/28 06:00:23;;;;;;;10.73;5.65;;;12.70;99.90;;;;;;5018266;28;20046;-81
2022/10/28 06:02:49;;;;;;;9.75;4.57;;;12.70;99.90;;;;;;5017873;28;20061;-81
2022/10/28 06:05:15;;;;;;;8.85;4.30;;;12.70;99.90;;;;;;5016973;28;20071;-81
2022/10/28 06:07:41;;;;;;;11.77;5.38;;;12.60;99.90;;;;;;5016678;28;20456;-81
2022/10/28 06:10:08;;;;;;;12.98;4.93;;;12.90;99.90;;;;;;5029427;28;20076;-83
2022/10/28 06:12:35;;;;;;;7.43;3.67;;;12.60;99.90;;;;;;5031108;28;20053;-83
2022/10/28 06:15:01;;;;;;;11.27;4.35;;;12.60;99.90;;;;;;5034000;28;20049;-84
2022/10/28 06:17:27;;;;;;;11.95;5.53;;;12.60;99.90;;;;;;5032735;28;20048;-83
2022/10/28 06:19:52;;;;;;;8.38;4.22;;;12.60;99.90;;;;;;5031903;28;20048;-83
2022/10/28 06:22:18;;;;;;;6.90;4.22;;;12.60;99.90;;;;;;5016808;28;20080;-83
2022/10/28 06:24:44;;;;;;;8.13;4.00;;;12.60;99.90;;;;;;5017763;28;20072;-84
2022/10/28 06:27:10;;;;;;;9.68;4.78;;;12.60;99.90;;;;;;5034108;28;20475;-83
2022/10/28 06:29:35;;;;;;;7.47;3.80;;;12.60;99.90;;;;;;5030938;28;20088;-83
2022/10/28 06:32:01;;;;;;;9.00;5.68;;;12.60;99.90;;;;;;4995871;28;20051;-83
2022/10/28 06:34:27;;;;;;;8.73;4.85;;;12.60;99.90;;;;;;5013533;28;20046;-83
2022/10/28 06:36:53;;;;;;;8.10;3.83;;;12.70;99.90;;;;;;5031139;28;20073;-83
2022/10/28 06:39:19;;;;;;;6.43;3.22;;;12.70;99.90;;;;;;5000576;28;20472;-83
2022/10/28 06:41:45;;;;;;;9.13;4.32;;;12.60;99.90;;;;;;5016752;28;20032;-83
2022/10/28 06:44:10;;;;;;;8.88;3.88;;;12.70;99.90;;;;;;5033469;28;20120;-83
2022/10/28 06:46:36;;;;;;;9.60;4.22;;;12.70;99.90;;;;;;5034102;28;20037;-84
2022/10/28 06:49:03;;;;;;;16.50;5.25;;;12.70;99.90;;;;;;5034047;28;20037;-83
2022/10/28 06:51:30;;;;;;;9.65;4.38;;;12.80;99.90;;;;;;5034263;28;20045;-84
2022/10/28 06:53:56;;;;;;;10.60;4.85;;;12.80;99.90;;;;;;5033662;28;20065;-83
2022/10/28 06:56:22;;;;;;;8.05;4.07;;;12.90;99.90;;;;;;5001948;28;20123;-83
2022/10/28 06:58:52;;;;;;;7.82;4.35;;;13.00;99.90;;;;;;5034231;28;20034;-83
2022/10/28 07:01:17;;;;;;;7.68;3.90;;;13.20;99.90;;;;;;5013946;28;20042;-82
2022/10/28 07:03:43;;;;;;;9.80;4.20;;;13.20;99.90;;;;;;5007483;28;20037;-81
2022/10/28 07:06:09;;;;;;;9.32;4.25;;;13.40;99.90;;;;;;5033945;28;20103;-81
2022/10/28 07:08:35;;;;;;;6.85;3.78;;;13.50;99.90;;;;;;4985132;28;20042;-82
2022/10/28 07:11:01;;;;;;;11.45;4.70;;;13.60;99.90;;;;;;5000713;28;20039;-82
2022/10/28 07:13:27;;;;;;;10.30;3.75;;;13.60;99.90;;;;;;5033936;28;20057;-82
2022/10/28 07:15:56;;;;;;;11.15;4.22;;;13.80;99.90;;;;;;5033664;28;20443;-81
2022/10/28 07:18:23;;;;;;;10.65;4.07;;;14.00;99.90;;;;;;5017065;28;20434;-82
2022/10/28 07:20:49;;;;;;;10.90;4.93;;;14.10;99.90;;;;;;5033189;28;20049;-82
2022/10/28 07:23:15;;;;;;;10.70;4.78;;;14.30;99.90;;;;;;5032967;28;20450;-82
2022/10/28 07:25:41;;;;;;;8.80;4.13;;;14.60;99.90;;;;;;5033359;28;20045;-82
2022/10/28 07:28:06;;;;;;;8.85;4.15;;;14.70;99.90;;;;;;5033433;28;20033;-81
2022/10/28 07:30:32;;;;;;;11.85;5.50;;;15.10;99.90;;;;;;5033658;28;20037;-81
2022/10/28 07:32:59;;;;;;;8.57;3.75;;;15.50;99.90;;;;;;5016884;28;20399;-81
2022/10/28 07:35:29;;;;;;;7.68;3.60;;;16.00;99.90;;;;;;5016421;28;20053;-81
2022/10/28 07:37:56;;;;;;;11.73;3.72;;;16.70;99.90;;;;;;5033175;28;20368;-82
2022/10/28 07:40:23;;;;;;;10.95;3.75;;;17.40;99.90;;;;;;5032927;28;20124;-82
2022/10/28 07:42:49;;;;;;;6.85;3.60;;;17.60;99.90;;;;;;5015904;28;20034;-82
2022/10/28 07:45:15;;;;;;;8.07;4.57;;;18.30;99.90;;;;;;5032796;28;20045;-82
2022/10/28 07:47:41;;;;;;;5.85;3.03;;;18.40;99.90;;;;;;5032498;28;20399;-82
2022/10/28 07:50:08;;;;;;;9.77;3.83;;;18.60;99.90;;;;;;5016186;28;20505;-84
2022/10/28 07:52:34;;;;;;;8.27;2.58;;;19.00;99.90;;;;;;5032797;28;20041;-84
2022/10/28 07:55:01;;;;;;;5.97;2.50;;;19.20;99.90;;;;;;5016349;28;20049;-84
2022/10/28 07:57:26;;;;;;;10.23;3.65;;;19.80;99.90;;;;;;5032606;28;20049;-84
2022/10/28 07:59:52;;;;;;;7.45;3.92;;;20.00;99.90;;;;;;5016546;28;20041;-84
2022/10/28 08:02:21;;;;;;;6.65;2.97;;;20.40;99.90;;;;;;5000296;28;20036;-84
2022/10/28 08:04:48;;;;;;;8.45;3.25;;;20.80;99.90;;;;;;5017063;28;20473;-84
2022/10/28 08:07:14;;;;;;;9.13;3.33;;;21.10;99.90;;;;;;5033381;28;20107;-82
2022/10/28 08:09:40;;;;;;;8.02;2.95;;;21.30;99.90;;;;;;5033263;28;20136;-82
2022/10/28 08:12:07;;;;;;;10.20;3.22;;;21.20;99.90;;;;;;5016433;28;20484;-82
2022/10/28 08:14:33;;;;;;;8.15;2.90;;;21.60;99.90;;;;;;4999934;28;20100;-82
2022/10/28 08:17:00;;;;;;;7.75;3.42;;;21.60;99.90;;;;;;5016691;28;20106;-82
2022/10/28 08:19:26;;;;;;;11.70;3.22;;;21.80;99.90;;;;;;5032701;28;20052;-82
2022/10/28 08:21:52;;;;;;;6.45;3.00;;;22.20;99.90;;;;;;5033064;28;20029;-82
2022/10/28 08:24:17;;;;;;;5.32;2.55;;;22.60;99.90;;;;;;5016394;28;20041;-84
2022/10/28 08:26:43;;;;;;;5.35;2.97;;;22.80;99.90;;;;;;5015878;28;20033;-84
2022/10/28 08:29:11;;;;;;;6.65;2.38;;;22.80;99.90;;;;;;5032303;28;20056;-84
2022/10/28 08:31:37;;;;;;;5.25;2.50;;;22.60;99.90;;;;;;5016829;28;20041;-84
2022/10/28 08:34:05;;;;;;;5.45;2.35;;;22.70;99.90;;;;;;4998832;28;20487;-84
2022/10/28 08:36:31;;;;;;;6.07;3.25;;;22.70;99.90;;;;;;5032213;28;20043;-86
2022/10/28 08:39:00;;;;;;;6.85;2.50;;;22.40;99.90;;;;;;5007037;28;20030;-84
2022/10/28 08:41:47;;;;;;;4.65;2.70;;;22.10;99.90;;;;;;5029287;28;20486;-85
2022/10/28 08:44:13;;;;;;;9.13;2.97;;;;;;;;;;5012791;28;20468;-84
2022/10/28 08:47:18;;;;;;;5.45;2.58;;;21.50;99.90;;;;;;5013077;28;20042;-84
2022/10/28 08:49:45;;;;;;;7.05;3.10;;;;;;;;;;5023839;28;20037;-84
2022/10/28 08:52:34;;;;;;;8.90;2.83;;;20.70;99.90;;;;;;5012661;28;20045;-84
2022/10/28 08:55:33;;;;;;;8.57;2.85;;;20.40;99.90;;;;;;5016021;28;20057;-85
2022/10/28 08:58:23;;;;;;;4.85;2.42;;;20.00;99.90;;;;;;4993776;28;20053;-86
2022/10/28 09:00:52;;;;;;;10.23;3.22;;;;;;;;;;5028851;28;20038;-86
2022/10/28 09:03:40;;;;;;;8.68;2.80;;;19.20;99.90;;;;;;5028446;28;20041;-86
2022/10/28 09:06:09;;;;;;;6.97;3.08;;;19.10;99.90;;;;;;5012376;28;20111;-86
2022/10/28 09:08:40;;;;;;;9.45;4.00;;;18.80;99.90;;;;;;5031287;28;20128;-86
2022/10/28 09:11:30;;;;;;;8.43;2.75;;;18.70;99.90;;;;;;5031359;28;20038;-85
2022/10/28 09:14:05;;;;;;;11.40;2.75;;;18.60;99.90;;;;;;5031932;28;20057;-86
2022/10/28 09:16:49;;;;;;;7.45;3.00;;;18.60;99.90;;;;;;5065249;28;20107;-85
2022/10/28 09:19:21;;;;;;;7.95;2.83;;;18.50;99.90;;;;;;4995787;28;20042;-86
2022/10/28 09:21:51;;;;;;;6.00;2.60;;;18.40;99.90;;;;;;5048531;28;20042;-86
2022/10/28 09:24:22;;;;;;;6.43;2.47;;;18.40;99.90;;;;;;5016386;28;20042;-86
2022/10/28 09:27:02;;;;;;;8.85;3.08;;;18.30;99.90;;;;;;5012517;28;20041;-86
2022/10/28 09:29:49;;;;;;;9.68;2.80;;;18.20;99.90;;;;;;5029295;28;20048;-86
2022/10/28 09:32:21;;;;;;;7.93;2.88;;;18.10;99.90;;;;;;5025800;28;20047;-84
2022/10/28 09:35:05;;;;;;;7.25;2.78;;;18.00;99.90;;;;;;5031708;28;20060;-83
2022/10/28 09:37:37;;;;;;;7.05;2.72;;;18.00;99.90;;;;;;5051638;28;20045;-84
2022/10/28 09:40:14;;;;;;;9.15;3.28;;;18.00;99.90;;;;;;5049384;28;20138;-83
2022/10/28 09:42:47;;;;;;;6.75;2.85;;;18.00;99.90;;;;;;5031530;28;20506;-83
2022/10/28 09:45:27;;;;;;;7.78;2.72;;;18.00;99.90;;;;;;5031929;28;20069;-83
2022/10/28 09:48:11;;;;;;;5.88;2.50;;;18.10;99.90;;;;;;5018675;28;20083;-84
2022/10/28 09:50:37;;;;;;;8.75;3.00;;;18.20;99.90;;;;;;5035244;28;20054;-84
2022/10/28 09:53:31;;;;;;;9.68;2.97;;;18.30;99.90;;;;;;5018326;28;20037;-84
2022/10/28 09:55:57;;;;;;;8.60;3.28;;;;;;;;;;5018985;28;20041;-84
2022/10/28 09:58:23;;;;;;;7.50;2.70;;;18.90;99.90;;;;;;5018673;28;20042;-85
2022/10/28 10:00:49;;;;;;;5.05;2.25;;;19.10;99.90;;;;;;5018404;28;20046;-85
2022/10/28 10:03:16;;;;;;;6.38;2.70;;;19.30;99.90;;;;;;5018725;28;20474;-84
2022/10/28 10:05:47;;;;;;;8.70;2.88;;;19.40;99.90;;;;;;5018279;28;20442;-83
2022/10/28 10:08:18;;;;;;;8.13;2.88;;;19.30;99.90;;;;;;5018184;28;20045;-84
2022/10/28 10:10:56;;;;;;;5.60;3.03;;;19.40;99.90;;;;;;5034902;28;20049;-84
2022/10/28 10:13:27;;;;;;;9.05;2.50;;;19.40;99.90;;;;;;5034611;28;20499;-83
2022/10/28 10:15:57;;;;;;;7.40;2.92;;;19.50;99.90;;;;;;5034636;28;20058;-84
2022/10/28 10:18:28;;;;;;;6.65;3.25;;;19.70;99.90;;;;;;5034575;28;20056;-84
2022/10/28 10:20:58;;;;;;;7.82;2.13;;;20.30;99.90;;;;;;5034536;28;20045;-84
2022/10/28 10:23:31;;;;;;;10.10;3.00;;;21.20;99.90;;;;;;5001928;28;20037;-82
2022/10/28 10:26:12;;;;;;;6.95;2.75;;;21.60;99.90;;;;;;5034252;28;20145;-83
2022/10/28 10:28:47;;;;;;;6.28;2.40;;;21.90;99.90;;;;;;5032082;28;20044;-84
2022/10/28 10:31:21;;;;;;;7.20;3.38;;;22.20;99.90;;;;;;5033888;28;20135;-84
2022/10/28 10:33:53;;;;;;;6.57;2.95;;;22.50;99.90;;;;;;5034440;28;20049;-83
2022/10/28 10:36:22;;;;;;;7.68;2.70;;;22.90;99.90;;;;;;5031594;28;20053;-83
2022/10/28 10:38:56;;;;;;;10.65;2.80;;;23.50;99.90;;;;;;5033987;28;20044;-83
2022/10/28 10:41:36;;;;;;;7.93;2.67;;;23.80;99.90;;;;;;5032660;28;20033;-83
2022/10/28 10:44:20;;;;;;;9.60;2.97;;;23.50;99.90;;;;;;5033806;28;20061;-83
2022/10/28 10:47:09;;;;;;;7.93;2.65;;;23.20;99.90;;;;;;5016834;28;20048;-83
2022/10/28 10:49:35;;;;;;;7.45;3.08;;;22.90;99.90;;;;;;5021066;28;20390;-82
2022/10/28 10:52:03;;;;;;;7.75;2.53;;;;;;;;;;5025494;28;20045;-82
2022/10/28 10:54:31;;;;;;;9.60;2.80;;;23.40;99.90;;;;;;5017393;28;20454;-83
2022/10/28 10:57:16;;;;;;;7.75;2.78;;;23.60;99.90;;;;;;4998930;28;20057;-83
2022/10/28 10:59:48;;;;;;;6.68;2.35;;;23.80;99.90;;;;;;5033872;28;20085;-83
2022/10/28 11:02:38;;;;;;;10.05;2.85;;;23.50;99.90;;;;;;5016868;28;20029;-83
2022/10/28 11:05:08;;;;;;;5.63;2.30;;;23.40;99.90;;;;;;5017180;28;20044;-83
2022/10/28 11:07:36;;;;;;;4.15;2.25;;;24.40;99.90;;;;;;5016555;28;20044;-83
2022/10/28 11:10:02;;;;;;;6.05;2.40;;;24.60;99.90;;;;;;5013157;28;20045;-85
2022/10/28 11:12:34;;;;;;;6.45;2.67;;;25.60;99.90;;;;;;5022678;28;20041;-84
2022/10/28 11:15:20;;;;;;;4.43;2.58;;;25.60;99.90;;;;;;5013844;28;20064;-85
2022/10/28 11:17:59;;;;;;;;;;;25.70;99.90;;;;;;5030659;28;20037;-85
2022/10/28 11:20:45;;;;;;;8.00;2.38;;;25.40;99.90;;;;;;5033143;28;20014;-82
2022/10/28 11:23:50;;;;;;;6.53;2.65;;;24.70;99.90;;;;;;5033498;28;20045;-83
2022/10/28 11:26:17;;;;;;;3.95;2.35;;;24.30;99.90;;;;;;5029394;28;20052;-83
2022/10/28 11:29:09;;;;;;;4.85;2.30;;;23.90;99.90;;;;;;5016537;28;20494;-82
2022/10/28 11:32:06;;;;;;;16.38;3.05;;;23.70;99.90;;;;;;5013558;28;20048;-82
2022/10/28 11:34:43;;;;;;;9.27;2.70;;;23.40;99.90;;;;;;4997332;28;20112;-82
2022/10/28 11:37:50;;;;;;;7.40;2.35;;;23.30;99.90;;;;;;5017813;28;20052;-82
2022/10/28 11:40:58;;;;;;;14.05;2.95;;;23.20;99.90;;;;;;5027710;28;20476;-82
2022/10/28 11:43:32;;;;;;;7.95;2.28;;;23.20;99.90;;;;;;4955933;28;20085;-80
2022/10/28 11:46:07;;;;;;;5.97;1.90;;;23.00;99.90;;;;;;5032463;28;20134;-80
2022/10/28 11:48:49;;;;;;;11.63;2.13;;;22.90;99.90;;;;;;5032152;28;20037;-80
2022/10/28 11:52:08;;;;;;;8.10;2.60;;;22.70;99.90;;;;;;5013584;28;20102;-80
2022/10/28 11:54:43;;;;;;;15.55;2.60;;;22.50;99.90;;;;;;4996097;28;20072;-80
2022/10/28 11:57:32;;;;;;;6.18;1.80;;;22.40;99.90;;;;;;4996604;28;20088;-80
2022/10/28 11:59:58;;;;;;;6.15;2.67;;;22.20;99.90;;;;;;5031820;28;20052;-82
2022/10/28 12:02:51;;;;;;;15.55;3.42;;;22.10;99.90;;;;;;5015848;28;20037;-83
2022/10/28 12:05:31;;;;;;;6.07;2.58;;;21.90;99.90;;;;;;5015337;28;20069;-82
2022/10/28 12:08:30;;;;;;;5.93;2.80;;;21.70;99.90;;;;;;5016031;28;20064;-82
2022/10/28 12:11:18;;;;;;;7.93;2.55;;;21.50;99.90;;;;;;5029403;28;20049;-82
2022/10/28 12:14:07;;;;;;;8.38;2.97;;;21.40;99.90;;;;;;5032143;28;20057;-83
2022/10/28 12:16:55;;;;;;;5.53;2.20;;;21.20;99.90;;;;;;5030566;28;20083;-81
2022/10/28 12:19:31;;;;;;;8.45;2.70;;;21.10;99.90;;;;;;5015794;28;20045;-81
2022/10/28 12:22:09;;;;;;;6.25;2.42;;;21.00;99.90;;;;;;5015718;28;20037;-81
2022/10/28 12:24:37;;;;;;;9.30;2.47;;;20.90;99.90;;;;;;5032156;28;20479;-81
2022/10/28 12:27:12;;;;;;;6.60;2.60;;;20.90;99.90;;;;;;5015285;28;20041;-81
2022/10/28 12:29:43;;;;;;;9.82;3.10;;;20.80;99.90;;;;;;5032455;28;20099;-80
2022/10/28 12:32:12;;;;;;;6.38;2.35;;;20.80;99.90;;;;;;5032060;28;20073;-81
2022/10/28 12:34:54;;;;;;;6.00;2.60;;;20.80;99.90;;;;;;5016127;28;20052;-83
2022/10/28 12:37:49;;;;;;;5.82;2.60;;;20.80;99.90;;;;;;5015017;28;20111;-83
2022/10/28 12:40:25;;;;;;;7.03;2.63;;;20.80;99.90;;;;;;5032159;28;20064;-82
2022/10/28 12:43:09;;;;;;;8.60;3.28;;;20.80;99.90;;;;;;5031790;28;20057;-83
2022/10/28 12:45:38;;;;;;;7.63;2.70;;;20.80;99.90;;;;;;5030680;28;20033;-83
2022/10/28 12:48:16;;;;;;;4.20;2.42;;;20.80;99.90;;;;;;5026208;28;20030;-83
2022/10/28 12:50:53;;;;;;;6.53;2.55;;;;;;;;;;5030094;28;20049;-84
2022/10/28 12:53:45;;;;;;;6.00;2.28;;;20.90;99.90;;;;;;5014924;28;20173;-84
2022/10/28 12:56:21;;;;;;;7.78;2.75;;;21.00;99.90;;;;;;5030126;28;20038;-84
2022/10/28 12:58:49;;;;;;;;;;;21.00;99.90;;;;;;5015005;28;20045;-84
2022/10/28 13:01:18;;;;;;;8.98;2.95;;;21.00;99.90;;;;;;5006038;28;19928;-84
2022/10/28 13:03:44;;;;;;;5.53;2.17;;;21.00;99.90;;;;;;5015335;28;20039;-84
2022/10/28 13:06:40;;;;;;;7.32;2.90;;;21.00;99.90;;;;;;5031631;28;20124;-84
2022/10/28 13:09:41;;;;;;;9.38;2.55;;;21.10;99.90;;;;;;5013801;28;20088;-83
2022/10/28 13:12:09;;;;;;;5.35;2.95;;;21.20;99.90;;;;;;5028331;28;20128;-83
2022/10/28 13:15:07;;;;;;;5.38;2.38;;;21.20;99.90;;;;;;5031692;28;20404;-83